Terminal Aerodrome Forecast
Issued by NWS Cleveland, OH

Home | Current Version | Previous Version | Graphics & Text | Print | Product List | Glossary On
Versions: 1 2 3 4 5 6 7 8 9 10 11 12 13 14 15 16 17 18 19 20
229
FTUS41 KCLE 090142 AAA
TAFYNG
TAF AMD
KYNG 090142Z 0902/0924 21009KT 5SM -SN BR OVC007
      TEMPO 0904/0908 2SM -SN OVC012
     FM090800 24005KT 6SM -SN OVC007
     FM091500 25007KT P6SM OVC012
     FM091800 26010KT P6SM -SHSN BKN020=

USA.gov is the U.S. government's official web portal to all federal, state and local government web resources and services.